createdAt,value
2018-04-13T00:00:26.686Z,89.00
2018-04-13T00:01:30.939Z,78.00
2018-04-13T00:02:35.152Z,94.00
2018-04-13T00:03:39.279Z,82.50
2018-04-13T00:04:44.442Z,74.00
2018-04-13T00:05:48.705Z,80.50
2018-04-13T00:06:52.827Z,64.50
2018-04-13T00:07:57.059Z,65.50
2018-04-13T00:09:01.175Z,71.00
2018-04-13T00:10:05.583Z,74.50
2018-04-13T00:11:10.034Z,82.00
2018-04-13T00:12:14.949Z,40.50
2018-04-13T00:13:19.079Z,63.50
2018-04-13T00:14:23.180Z,84.50
2018-04-13T00:15:28.058Z,64.50
2018-04-13T00:16:33.134Z,66.50
2018-04-13T00:17:37.258Z,107.00
2018-04-13T00:18:41.731Z,30.50
2018-04-13T00:19:45.856Z,43.50
2018-04-13T00:20:50.085Z,41.00
2018-04-13T00:21:54.251Z,53.00
2018-04-13T00:22:58.707Z,51.50
2018-04-13T00:24:03.342Z,49.50
2018-04-13T00:25:07.961Z,72.50
2018-04-13T00:26:12.118Z,67.00
2018-04-13T00:27:16.965Z,89.00
2018-04-13T00:28:21.077Z,72.50
2018-04-13T00:29:25.489Z,91.00
2018-04-13T00:30:29.936Z,73.50
2018-04-13T00:31:34.053Z,109.00
2018-04-13T00:32:38.373Z,65.00
2018-04-13T00:33:42.555Z,74.50
2018-04-13T00:34:46.659Z,100.50
2018-04-13T00:35:51.086Z,89.00
2018-04-13T00:36:55.191Z,73.00
2018-04-13T00:37:59.406Z,37.00
2018-04-13T00:39:03.738Z,74.00
2018-04-13T00:40:08.145Z,90.50
2018-04-13T00:41:12.347Z,80.50
2018-04-13T00:42:17.043Z,60.50
2018-04-13T00:43:21.240Z,46.50
2018-04-13T00:44:25.414Z,72.00
2018-04-13T00:45:29.721Z,72.50
2018-04-13T00:46:33.859Z,59.50
2018-04-13T00:47:38.593Z,57.00
2018-04-13T00:48:43.579Z,67.00
2018-04-13T00:49:47.739Z,71.50
2018-04-13T00:50:51.903Z,83.50
2018-04-13T00:51:56.007Z,86.50
2018-04-13T00:53:08.829Z,85.50
2018-04-13T00:54:13.709Z,78.00
2018-04-13T00:55:18.239Z,81.00
2018-04-13T00:56:22.391Z,78.00
2018-04-13T00:57:26.497Z,74.50
2018-04-13T00:58:30.714Z,67.00
2018-04-13T00:59:34.929Z,47.00
2018-04-13T01:00:39.677Z,69.00
2018-04-13T01:01:44.194Z,63.00
2018-04-13T01:02:48.436Z,75.50
2018-04-13T01:03:52.971Z,64.00
2018-04-13T01:04:57.399Z,78.50
2018-04-13T01:06:01.554Z,52.00
2018-04-13T01:07:06.035Z,68.00
2018-04-13T01:08:10.819Z,53.00
2018-04-13T01:09:15.859Z,48.50
2018-04-13T01:10:20.201Z,41.00
2018-04-13T01:11:24.700Z,46.50
2018-04-13T01:12:29.413Z,66.50
2018-04-13T01:13:33.839Z,82.00
2018-04-13T01:14:38.693Z,80.50
2018-04-13T01:15:43.075Z,88.00
2018-04-13T01:16:47.172Z,84.00
2018-04-13T01:17:51.334Z,70.00
2018-04-13T01:18:55.423Z,71.00
2018-04-13T01:19:59.582Z,78.00
2018-04-13T01:21:03.702Z,75.00
2018-04-13T01:22:07.804Z,75.00
2018-04-13T01:23:11.974Z,69.50
2018-04-13T01:24:17.150Z,73.50
2018-04-13T01:25:21.597Z,82.25
2018-04-13T01:26:26.015Z,60.75
2018-04-13T01:27:30.272Z,83.00
2018-04-13T01:28:34.404Z,74.50
2018-04-13T01:29:38.600Z,57.50
2018-04-13T01:30:43.143Z,69.00
2018-04-13T01:31:47.285Z,75.50
2018-04-13T01:32:52.035Z,64.00
2018-04-13T01:33:56.185Z,80.00
2018-04-13T01:35:00.879Z,88.00
2018-04-13T01:36:05.037Z,79.00
2018-04-13T01:37:09.134Z,76.75
2018-04-13T01:38:13.873Z,81.50
2018-04-13T01:39:18.948Z,71.50
2018-04-13T01:40:23.347Z,80.50
2018-04-13T01:41:27.945Z,74.50
2018-04-13T01:42:32.043Z,66.75
2018-04-13T01:43:36.607Z,75.50
2018-04-13T01:44:40.962Z,69.50
2018-04-13T01:45:45.355Z,74.00
2018-04-13T01:46:50.336Z,79.75
2018-04-13T01:47:54.923Z,85.50
2018-04-13T01:48:59.582Z,72.50
2018-04-13T01:50:04.097Z,74.00
2018-04-13T01:51:08.662Z,80.00
2018-04-13T01:52:13.194Z,80.25
2018-04-13T01:53:18.084Z,79.25
2018-04-13T01:54:22.368Z,69.00
2018-04-13T01:55:26.486Z,65.50
2018-04-13T01:56:30.612Z,67.50
2018-04-13T01:57:35.069Z,74.00
2018-04-13T01:58:39.228Z,75.75
2018-04-13T01:59:43.435Z,59.50
2018-04-13T02:00:48.265Z,80.25
2018-04-13T02:01:52.348Z,82.50
2018-04-13T02:02:56.551Z,79.75
2018-04-13T02:04:01.019Z,72.50
2018-04-13T02:05:05.266Z,87.00
2018-04-13T02:06:09.728Z,82.00
2018-04-13T02:07:14.141Z,70.50
2018-04-13T02:08:19.256Z,72.00
2018-04-13T02:09:23.469Z,72.00
2018-04-13T02:10:27.929Z,94.00
2018-04-13T02:11:32.357Z,72.75
2018-04-13T02:12:37.241Z,80.50
2018-04-13T02:13:41.453Z,77.50
2018-04-13T02:14:47.241Z,80.00
2018-04-13T02:15:51.625Z,85.75
2018-04-13T02:16:56.091Z,78.50
2018-04-13T02:18:00.381Z,87.00
2018-04-13T02:19:04.601Z,86.00
2018-04-13T02:20:08.718Z,84.50
2018-04-13T02:21:12.863Z,84.00
2018-04-13T02:22:17.857Z,77.00
2018-04-13T02:23:22.389Z,85.00
2018-04-13T02:24:26.566Z,67.00
2018-04-13T02:25:30.751Z,82.25
2018-04-13T02:26:34.899Z,100.25
2018-04-13T02:27:39.014Z,81.50
2018-04-13T02:28:43.234Z,90.75
2018-04-13T02:29:47.370Z,85.50
2018-04-13T02:30:51.851Z,89.50
2018-04-13T02:31:55.973Z,72.00
2018-04-13T02:33:00.498Z,92.50
2018-04-13T02:34:04.628Z,75.75
2018-04-13T02:35:09.094Z,83.50
2018-04-13T02:36:14.084Z,81.00
2018-04-13T02:37:19.139Z,81.00
2018-04-13T02:38:23.504Z,96.50
2018-04-13T02:39:27.737Z,97.00
2018-04-13T02:40:31.856Z,105.00
2018-04-13T02:41:36.090Z,101.00
2018-04-13T02:42:40.211Z,90.00
2018-04-13T02:43:44.354Z,85.00
2018-04-13T02:44:48.606Z,80.00
2018-04-13T02:45:53.055Z,89.00
2018-04-13T02:46:57.431Z,79.00
2018-04-13T02:48:01.742Z,93.50
2018-04-13T02:49:06.059Z,94.50
2018-04-13T02:50:10.152Z,92.00
2018-04-13T02:51:14.266Z,77.50
2018-04-13T02:52:18.641Z,82.50
2018-04-13T02:53:23.084Z,90.25
2018-04-13T02:54:27.216Z,84.25
2018-04-13T02:55:31.332Z,98.00
2018-04-13T02:56:35.866Z,94.00
2018-04-13T02:57:40.061Z,83.00
2018-04-13T02:58:45.221Z,90.50
2018-04-13T02:59:49.635Z,88.50
2018-04-13T03:00:53.971Z,76.25
2018-04-13T03:01:58.085Z,71.50
2018-04-13T03:03:02.321Z,97.75
2018-04-13T03:04:06.444Z,71.00
2018-04-13T03:05:10.551Z,93.00
2018-04-13T03:06:15.265Z,90.50
2018-04-13T03:07:19.489Z,96.00
2018-04-13T03:08:23.627Z,81.50
2018-04-13T03:09:27.737Z,84.50
2018-04-13T03:10:31.841Z,91.00
2018-04-13T03:11:36.114Z,94.00
2018-04-13T03:12:40.627Z,60.50
2018-04-13T03:13:45.000Z,67.50
2018-04-13T03:14:49.209Z,88.50
2018-04-13T03:15:53.617Z,96.00
2018-04-13T03:16:57.727Z,88.50
2018-04-13T03:18:01.926Z,68.00
2018-04-13T03:19:06.998Z,85.50
2018-04-13T03:20:11.116Z,97.00
2018-04-13T03:21:16.360Z,76.00
2018-04-13T03:22:20.560Z,71.50
2018-04-13T03:23:24.678Z,51.00
2018-04-13T03:24:28.794Z,92.00
2018-04-13T03:25:33.309Z,63.00
2018-04-13T03:26:37.422Z,85.50
2018-04-13T03:27:41.550Z,83.50
2018-04-13T03:28:45.684Z,89.00
2018-04-13T03:29:49.801Z,78.00
2018-04-13T03:30:54.451Z,84.00
2018-04-13T03:31:58.910Z,91.50
2018-04-13T03:33:03.036Z,88.50
2018-04-13T03:34:07.164Z,85.00
2018-04-13T03:35:11.289Z,79.00
2018-04-13T03:36:15.485Z,76.00
2018-04-13T03:37:20.401Z,78.00
2018-04-13T03:38:24.517Z,90.00
2018-04-13T03:39:28.625Z,70.50
2018-04-13T03:40:32.741Z,70.50
2018-04-13T03:41:37.045Z,79.00
2018-04-13T03:42:41.204Z,96.00
2018-04-13T03:43:45.309Z,81.50
2018-04-13T03:44:50.732Z,84.50
2018-04-13T03:45:55.095Z,96.50
2018-04-13T03:46:59.253Z,69.00
2018-04-13T03:48:03.390Z,77.00
2018-04-13T03:49:07.568Z,85.00
2018-04-13T03:50:11.678Z,93.00
2018-04-13T03:51:15.794Z,83.50
2018-04-13T03:52:19.923Z,85.50
2018-04-13T03:53:24.523Z,90.50
2018-04-13T03:54:29.159Z,87.50
2018-04-13T03:55:33.338Z,93.50
2018-04-13T03:56:37.864Z,88.00
2018-04-13T03:57:42.008Z,62.00
2018-04-13T03:58:46.610Z,93.00
2018-04-13T03:59:51.233Z,93.50
2018-04-13T04:00:55.837Z,100.00
2018-04-13T04:02:00.250Z,88.50
2018-04-13T04:03:04.645Z,80.50
2018-04-13T04:04:08.869Z,94.00
2018-04-13T04:05:12.995Z,93.00
2018-04-13T04:06:17.247Z,86.50
2018-04-13T04:07:21.383Z,88.00
2018-04-13T04:08:25.524Z,90.50
2018-04-13T04:09:29.939Z,94.00
2018-04-13T04:10:34.072Z,93.00
2018-04-13T04:11:38.514Z,93.50
2018-04-13T04:12:42.715Z,98.00
2018-04-13T04:13:46.925Z,81.00
2018-04-13T04:14:52.730Z,90.00
2018-04-13T04:15:57.344Z,98.00
2018-04-13T04:17:01.523Z,95.50
2018-04-13T04:18:05.676Z,98.50
2018-04-13T04:19:09.784Z,89.00
2018-04-13T04:20:25.036Z,97.00
2018-04-13T04:21:40.051Z,88.50
2018-04-13T04:25:00.764Z,88.50
2018-04-13T04:27:09.754Z,83.00
2018-04-13T04:28:13.888Z,95.50
2018-04-13T04:29:19.008Z,89.50
2018-04-13T04:30:23.630Z,97.00
2018-04-13T04:31:27.738Z,97.00
2018-04-13T04:32:32.185Z,100.00
2018-04-13T04:33:36.415Z,94.50
2018-04-13T04:34:40.569Z,94.00
2018-04-13T04:35:44.706Z,105.50
2018-04-13T04:36:48.856Z,99.50
2018-04-13T04:37:53.064Z,106.50
2018-04-13T04:38:58.132Z,91.50
2018-04-13T04:40:02.357Z,96.50
2018-04-13T04:41:06.511Z,89.50
2018-04-13T04:42:10.644Z,81.00
2018-04-13T04:43:14.795Z,79.50
2018-04-13T04:44:19.814Z,91.50
2018-04-13T04:45:24.438Z,101.50
2018-04-13T04:46:28.560Z,84.50
2018-04-13T04:47:32.648Z,77.50
2018-04-13T04:48:36.846Z,87.00
2018-04-13T04:49:40.989Z,82.00
2018-04-13T04:50:45.628Z,94.00
2018-04-13T04:51:49.777Z,90.50
2018-04-13T04:52:54.967Z,94.50
2018-04-13T04:53:59.133Z,84.50
2018-04-13T04:55:03.274Z,91.00
2018-04-13T04:56:07.432Z,92.50
2018-04-13T04:57:11.540Z,100.00
2018-04-13T04:58:15.832Z,97.50
2018-04-13T04:59:20.881Z,95.50
2018-04-13T05:00:25.274Z,127.25
2018-04-13T05:01:29.526Z,103.00
2018-04-13T05:02:34.007Z,86.50
2018-04-13T05:03:38.216Z,95.50
2018-04-13T05:04:42.340Z,91.00
2018-04-13T05:05:46.502Z,87.00
2018-04-13T05:06:50.645Z,96.50
2018-04-13T05:07:55.558Z,95.50
2018-04-13T05:09:00.042Z,84.50
2018-04-13T05:10:04.284Z,89.00
2018-04-13T05:11:08.416Z,94.50
2018-04-13T05:12:12.630Z,95.50
2018-04-13T05:13:17.396Z,105.00
2018-04-13T05:14:22.159Z,85.50
2018-04-13T05:15:26.698Z,97.00
2018-04-13T05:16:30.815Z,95.50
2018-04-13T05:17:34.933Z,90.00
2018-04-13T05:18:39.137Z,99.50
2018-04-13T05:19:43.304Z,95.00
2018-04-13T05:20:47.821Z,81.50
2018-04-13T05:21:51.939Z,101.50
2018-04-13T05:22:56.112Z,84.00
2018-04-13T05:24:01.292Z,100.50
2018-04-13T05:25:05.414Z,94.50
2018-04-13T05:26:09.525Z,99.00
2018-04-13T05:27:13.957Z,98.00
2018-04-13T05:28:18.234Z,84.00
2018-04-13T05:29:22.376Z,97.00
2018-04-13T05:30:26.709Z,109.50
2018-04-13T05:31:30.823Z,92.50
2018-04-13T05:32:35.559Z,99.00
2018-04-13T05:33:39.781Z,89.50
2018-04-13T05:34:44.351Z,95.00
2018-04-13T05:35:48.577Z,99.00
2018-04-13T05:36:52.729Z,85.50
2018-04-13T05:37:56.933Z,106.00
2018-04-13T05:39:02.264Z,95.50
2018-04-13T05:40:06.444Z,100.50
2018-04-13T05:41:10.590Z,92.00
2018-04-13T05:42:14.767Z,98.50
2018-04-13T05:43:19.127Z,104.00
2018-04-13T05:44:23.322Z,96.00
2018-04-13T05:45:27.719Z,92.50
2018-04-13T05:46:31.828Z,104.50
2018-04-13T05:47:35.957Z,99.00
2018-04-13T05:48:40.066Z,97.50
2018-04-13T05:49:44.264Z,98.00
2018-04-13T05:50:48.765Z,104.00
2018-04-13T05:51:53.016Z,93.50
2018-04-13T05:52:57.176Z,96.00
2018-04-13T05:54:02.258Z,98.50
2018-04-13T05:55:06.464Z,106.00
2018-04-13T05:56:10.608Z,94.50
2018-04-13T05:57:15.169Z,96.50
2018-04-13T05:58:19.272Z,94.00
2018-04-13T05:59:23.378Z,80.50
2018-04-13T06:00:27.828Z,92.50
2018-04-13T06:01:31.990Z,106.00
2018-04-13T06:02:36.188Z,90.50
2018-04-13T06:03:40.654Z,98.50
2018-04-13T06:04:45.096Z,90.50
2018-04-13T06:05:49.284Z,95.00
2018-04-13T06:06:53.534Z,92.50
2018-04-13T06:07:57.669Z,94.00
2018-04-13T06:09:03.282Z,89.00
2018-04-13T06:10:07.409Z,94.00
2018-04-13T06:11:11.576Z,108.50
2018-04-13T06:12:15.728Z,95.00
2018-04-13T06:13:20.765Z,92.00
2018-04-13T06:14:24.886Z,103.00
2018-04-13T06:15:29.255Z,100.25
2018-04-13T06:16:33.408Z,96.75
2018-04-13T06:17:37.638Z,88.75
2018-04-13T06:18:41.779Z,94.50
2018-04-13T06:19:45.902Z,91.75
2018-04-13T06:20:50.566Z,93.50
2018-04-13T06:21:54.693Z,97.50
2018-04-13T06:22:58.874Z,94.00
2018-04-13T06:24:03.860Z,95.50
2018-04-13T06:25:08.054Z,84.00
2018-04-13T06:26:12.256Z,77.25
2018-04-13T06:27:17.653Z,96.25
2018-04-13T06:28:21.770Z,89.00
2018-04-13T06:29:25.905Z,93.75
2018-04-13T06:30:30.384Z,88.75
2018-04-13T06:31:34.534Z,91.75
2018-04-13T06:32:38.652Z,91.25
2018-04-13T06:33:43.294Z,88.50
2018-04-13T06:34:47.468Z,93.50
2018-04-13T06:35:51.654Z,91.00
2018-04-13T06:36:55.974Z,79.50
2018-04-13T06:38:00.097Z,95.25
2018-04-13T06:39:04.478Z,92.50
2018-04-13T06:40:08.637Z,97.50
2018-04-13T06:41:12.841Z,89.25
2018-04-13T06:42:17.102Z,97.25
2018-04-13T06:43:22.064Z,94.00
2018-04-13T06:44:26.274Z,93.00
2018-04-13T06:45:30.920Z,102.75
2018-04-13T06:46:35.134Z,89.50
2018-04-13T06:47:39.317Z,93.25
2018-04-13T06:48:43.438Z,99.75
2018-04-13T06:49:47.627Z,96.25
2018-04-13T06:50:51.949Z,87.00
2018-04-13T06:51:56.443Z,88.25
2018-04-13T06:53:01.571Z,95.50
2018-04-13T06:54:05.789Z,101.00
2018-04-13T06:55:09.961Z,91.75
2018-04-13T06:56:14.116Z,92.00
2018-04-13T06:57:18.311Z,102.00
2018-04-13T06:58:23.357Z,92.50
2018-04-13T06:59:27.510Z,93.00
2018-04-13T07:00:31.953Z,99.50
2018-04-13T07:01:36.756Z,95.50
2018-04-13T07:02:41.038Z,90.50
2018-04-13T07:03:45.190Z,100.00
2018-04-13T07:04:49.674Z,97.00
2018-04-13T07:05:53.822Z,97.25
2018-04-13T07:06:58.134Z,94.00
2018-04-13T07:08:02.390Z,94.50
2018-04-13T07:09:07.148Z,93.00
2018-04-13T07:10:11.354Z,90.00
2018-04-13T07:11:15.788Z,89.75
2018-04-13T07:12:20.800Z,96.00
2018-04-13T07:13:25.170Z,91.00
2018-04-13T07:14:29.570Z,99.00
2018-04-13T07:15:34.142Z,94.00
2018-04-13T07:16:38.616Z,89.50
2018-04-13T07:17:42.728Z,92.50
2018-04-13T07:18:46.956Z,99.25
2018-04-13T07:19:51.338Z,97.50
2018-04-13T07:20:55.654Z,102.50
2018-04-13T07:22:00.040Z,96.50
2018-04-13T07:23:04.557Z,92.00
2018-04-13T07:24:08.718Z,93.50
2018-04-13T07:25:13.016Z,90.25
2018-04-13T07:26:17.286Z,91.50
2018-04-13T07:27:21.558Z,97.00
2018-04-13T07:28:25.668Z,89.50
2018-04-13T07:29:30.265Z,98.75
2018-04-13T07:30:34.554Z,105.75
2018-04-13T07:31:38.700Z,88.00
2018-04-13T07:32:42.872Z,88.50
2018-04-13T07:33:47.024Z,95.00
2018-04-13T07:34:51.110Z,91.00
2018-04-13T07:35:55.596Z,90.00
2018-04-13T07:37:00.167Z,92.75
2018-04-13T07:38:03.904Z,85.50
2018-04-13T07:39:08.126Z,99.75
2018-04-13T07:40:12.368Z,90.50
2018-04-13T07:41:16.561Z,97.25
2018-04-13T07:42:21.003Z,68.25
2018-04-13T07:43:25.659Z,79.00
2018-04-13T07:44:29.774Z,71.50
2018-04-13T07:45:34.356Z,74.00
2018-04-13T07:46:39.192Z,91.75
2018-04-13T07:47:43.332Z,93.00
2018-04-13T07:48:47.521Z,92.25
2018-04-13T07:49:51.709Z,88.50
2018-04-13T07:50:56.402Z,83.75
2018-04-13T07:52:00.181Z,88.50
2018-04-13T07:53:04.368Z,88.50
2018-04-13T07:54:08.853Z,89.25
2018-04-13T07:55:12.988Z,91.50
2018-04-13T07:56:17.441Z,85.25
2018-04-13T07:57:21.661Z,81.00
2018-04-13T07:58:27.369Z,92.25
2018-04-13T07:59:31.816Z,79.00
2018-04-13T08:00:35.921Z,71.00
2018-04-13T08:01:40.602Z,77.00
2018-04-13T08:02:44.329Z,82.00
2018-04-13T08:03:48.485Z,88.75
2018-04-13T08:04:52.610Z,89.25
2018-04-13T08:05:57.146Z,90.25
2018-04-13T08:07:01.346Z,83.25
2018-04-13T08:08:05.475Z,91.00
2018-04-13T08:09:09.661Z,82.25
2018-04-13T08:10:14.327Z,84.00
2018-04-13T08:11:18.037Z,74.25
2018-04-13T08:12:22.807Z,75.25
2018-04-13T08:13:27.381Z,82.75
2018-04-13T08:14:31.527Z,88.50
2018-04-13T08:15:35.999Z,90.00
2018-04-13T08:16:40.153Z,79.75
2018-04-13T08:17:44.370Z,93.00
2018-04-13T08:18:48.905Z,81.25
2018-04-13T08:19:53.061Z,86.00
2018-04-13T08:20:57.205Z,85.75
2018-04-13T08:22:01.308Z,81.75
2018-04-13T08:23:05.663Z,84.50
2018-04-13T08:24:09.847Z,84.25
2018-04-13T08:25:14.096Z,83.00
2018-04-13T08:26:18.352Z,87.50
2018-04-13T08:27:22.506Z,87.00
2018-04-13T08:28:26.806Z,88.25
2018-04-13T08:29:30.909Z,86.25
2018-04-13T08:30:35.652Z,80.00
2018-04-13T08:31:40.109Z,82.25
2018-04-13T08:32:45.085Z,91.00
2018-04-13T08:33:49.285Z,93.50
2018-04-13T08:34:53.456Z,83.25
2018-04-13T08:35:57.682Z,91.25
2018-04-13T08:37:01.863Z,86.25
2018-04-13T08:38:06.031Z,81.00
2018-04-13T08:39:10.271Z,84.00
2018-04-13T08:40:14.446Z,91.00
2018-04-13T08:41:18.599Z,78.75
2018-04-13T08:42:22.999Z,75.75
2018-04-13T08:43:27.486Z,87.00
2018-04-13T08:44:32.451Z,88.75
2018-04-13T08:45:36.999Z,90.75
2018-04-13T08:46:41.107Z,81.50
2018-04-13T08:47:45.251Z,82.00
2018-04-13T08:48:49.479Z,84.50
2018-04-13T08:49:53.723Z,88.50
2018-04-13T08:50:57.956Z,87.25
2018-04-13T08:52:02.083Z,83.00
2018-04-13T08:53:06.251Z,85.75
2018-04-13T08:54:10.455Z,86.00
2018-04-13T08:55:14.685Z,85.25
2018-04-13T08:56:19.161Z,84.50
2018-04-13T08:57:23.763Z,90.50
2018-04-13T08:58:27.896Z,91.75
2018-04-13T08:59:32.117Z,95.00
2018-04-13T09:00:36.567Z,94.75
2018-04-13T09:01:40.653Z,94.75
2018-04-13T09:02:44.740Z,87.25
2018-04-13T09:03:48.868Z,86.50
2018-04-13T09:04:53.216Z,94.00
2018-04-13T09:05:57.443Z,91.00
2018-04-13T09:07:01.565Z,76.75
2018-04-13T09:08:06.549Z,88.50
2018-04-13T09:09:10.782Z,89.75
2018-04-13T09:10:14.924Z,97.75
2018-04-13T09:11:19.609Z,86.25
2018-04-13T09:12:23.806Z,88.75
2018-04-13T09:13:28.732Z,94.75
2018-04-13T09:14:40.684Z,96.25
2018-04-13T09:15:45.173Z,89.50
2018-04-13T09:16:49.413Z,103.00
2018-04-13T09:17:53.511Z,94.50
2018-04-13T09:18:58.066Z,89.50
2018-04-13T09:20:02.191Z,83.50
2018-04-13T09:21:06.397Z,94.50
2018-04-13T09:22:10.619Z,85.25
2018-04-13T09:23:14.829Z,87.50
2018-04-13T09:24:18.979Z,91.75
2018-04-13T09:25:23.473Z,82.25
2018-04-13T09:26:27.716Z,94.75
2018-04-13T09:27:31.953Z,98.50
2018-04-13T09:28:36.093Z,99.75
2018-04-13T09:29:40.777Z,103.00
2018-04-13T09:30:45.206Z,98.50
2018-04-13T09:31:49.704Z,89.75
2018-04-13T09:32:53.826Z,95.50
2018-04-13T09:33:58.355Z,91.25
2018-04-13T09:35:02.788Z,88.50
2018-04-13T09:36:07.330Z,91.00
2018-04-13T09:37:11.634Z,92.00
2018-04-13T09:38:15.766Z,92.50
2018-04-13T09:39:19.895Z,86.75
2018-04-13T09:40:24.057Z,97.50
2018-04-13T09:41:28.290Z,93.50
2018-04-13T09:42:32.433Z,96.25
2018-04-13T09:43:36.613Z,98.75
2018-04-13T09:44:42.075Z,95.25
2018-04-13T09:45:46.545Z,93.00
2018-04-13T09:46:50.673Z,93.00
2018-04-13T09:47:54.819Z,95.00
2018-04-13T09:48:59.063Z,97.25
2018-04-13T09:50:03.648Z,88.75
2018-04-13T09:51:07.776Z,87.50
2018-04-13T09:52:11.887Z,94.75
2018-04-13T09:53:16.039Z,99.25
2018-04-13T09:54:20.234Z,93.00
2018-04-13T09:55:24.358Z,92.50
2018-04-13T09:56:28.585Z,89.00
2018-04-13T09:57:32.817Z,92.00
2018-04-13T09:58:37.011Z,86.00
2018-04-13T09:59:42.124Z,82.25
2018-04-13T10:00:50.447Z,94.75
2018-04-13T10:01:54.727Z,86.75
2018-04-13T10:03:02.977Z,89.75
2018-04-13T10:04:11.114Z,93.75
2018-04-13T10:05:17.699Z,99.00
2018-04-13T10:06:22.301Z,87.50
2018-04-13T10:07:26.467Z,92.50
2018-04-13T10:08:30.736Z,89.25
2018-04-13T10:09:34.867Z,88.50
2018-04-13T10:10:38.993Z,90.00
2018-04-13T10:11:43.204Z,99.25
2018-04-13T10:12:47.696Z,88.00
2018-04-13T10:13:51.865Z,94.75
2018-04-13T10:14:56.149Z,89.50
2018-04-13T10:16:01.359Z,96.00
2018-04-13T10:17:05.602Z,86.75
2018-04-13T10:18:09.833Z,86.50
2018-04-13T10:19:14.355Z,91.50
2018-04-13T10:20:18.533Z,93.50
2018-04-13T10:21:22.725Z,98.50
2018-04-13T10:22:26.945Z,86.75
2018-04-13T10:23:31.077Z,96.25
2018-04-13T10:24:35.389Z,79.00
2018-04-13T10:25:39.875Z,95.25
2018-04-13T10:26:44.137Z,100.50
2018-04-13T10:27:48.323Z,94.75
2018-04-13T10:28:52.551Z,94.00
2018-04-13T10:29:56.730Z,97.50
2018-04-13T10:31:01.310Z,94.50
2018-04-13T10:32:05.446Z,92.25
2018-04-13T10:33:09.623Z,103.25
2018-04-13T10:34:13.754Z,92.50
2018-04-13T10:35:17.979Z,95.25
2018-04-13T10:36:22.217Z,90.00
2018-04-13T10:37:26.485Z,83.50
2018-04-13T10:38:30.615Z,101.25
2018-04-13T10:39:34.909Z,95.25
2018-04-13T10:40:39.081Z,101.00
2018-04-13T10:41:43.191Z,97.50
2018-04-13T10:42:47.869Z,101.00
2018-04-13T10:43:52.002Z,97.50
2018-04-13T10:44:57.025Z,90.00
2018-04-13T10:46:01.159Z,98.00
2018-04-13T10:47:05.458Z,100.75
2018-04-13T10:48:09.656Z,90.50
2018-04-13T10:49:13.799Z,97.25
2018-04-13T10:50:17.903Z,95.50
2018-04-13T10:51:22.014Z,87.75
2018-04-13T10:52:26.488Z,96.00
2018-04-13T10:53:30.605Z,99.00
2018-04-13T10:54:34.829Z,93.00
2018-04-13T10:55:39.057Z,91.00
2018-04-13T10:56:43.224Z,97.50
2018-04-13T10:57:47.679Z,92.25
2018-04-13T10:58:51.985Z,96.25
2018-04-13T10:59:56.179Z,91.75
2018-04-13T11:01:00.616Z,101.25
2018-04-13T11:02:04.998Z,90.50
2018-04-13T11:03:09.298Z,94.75
2018-04-13T11:04:13.591Z,101.25
2018-04-13T11:05:18.070Z,87.75
2018-04-13T11:06:22.351Z,107.75
2018-04-13T11:07:26.500Z,97.25
2018-04-13T11:08:30.606Z,89.00
2018-04-13T11:09:34.746Z,101.75
2018-04-13T11:10:39.178Z,93.50
2018-04-13T11:11:43.344Z,94.50
2018-04-13T11:12:47.472Z,90.50
2018-04-13T11:13:52.556Z,90.75
2018-04-13T11:14:56.706Z,96.00
2018-04-13T11:16:02.723Z,93.75
2018-04-13T11:17:07.868Z,88.00
2018-04-13T11:18:12.140Z,95.50
2018-04-13T11:19:16.261Z,91.25
2018-04-13T11:20:20.496Z,97.00
2018-04-13T11:21:24.607Z,93.00
2018-04-13T11:22:28.775Z,103.50
2018-04-13T11:23:32.995Z,95.50
2018-04-13T11:24:37.292Z,101.00
2018-04-13T11:25:41.571Z,100.25
2018-04-13T11:26:45.722Z,93.75
2018-04-13T11:27:49.844Z,92.00
2018-04-13T11:28:54.041Z,92.75
2018-04-13T11:29:59.449Z,89.25
2018-04-13T11:31:03.763Z,88.50
2018-04-13T11:32:07.979Z,102.25
2018-04-13T11:33:12.182Z,98.25
2018-04-13T11:34:16.334Z,95.00
2018-04-13T11:35:20.564Z,97.00
2018-04-13T11:36:24.809Z,93.25
2018-04-13T11:37:29.320Z,92.75
2018-04-13T11:38:33.567Z,91.75
2018-04-13T11:39:37.737Z,90.50
2018-04-13T11:40:41.972Z,100.00
2018-04-13T11:41:46.149Z,89.75
2018-04-13T11:42:50.394Z,93.75
2018-04-13T11:43:55.037Z,102.00
2018-04-13T11:44:59.169Z,89.75
2018-04-13T11:46:03.427Z,92.75
2018-04-13T11:47:08.245Z,89.75
2018-04-13T11:48:13.039Z,101.25
2018-04-13T11:49:17.375Z,92.25
2018-04-13T11:50:21.604Z,107.50
2018-04-13T11:51:25.815Z,100.75
2018-04-13T11:52:30.248Z,91.75
2018-04-13T11:53:34.399Z,107.25
2018-04-13T11:54:38.643Z,92.50
2018-04-13T11:55:42.949Z,100.75
2018-04-13T11:56:47.105Z,98.00
2018-04-13T11:57:51.933Z,103.25
2018-04-13T11:58:56.449Z,103.50
2018-04-13T12:00:00.555Z,96.25
2018-04-13T12:01:04.917Z,101.50
2018-04-13T12:02:09.248Z,99.25
2018-04-13T12:03:13.405Z,93.00
2018-04-13T12:04:17.569Z,93.00
2018-04-13T12:05:22.059Z,94.50
2018-04-13T12:06:26.971Z,97.25
2018-04-13T12:07:31.117Z,96.00
2018-04-13T12:08:35.372Z,96.75
2018-04-13T12:09:39.734Z,93.25
2018-04-13T12:10:43.997Z,101.25
2018-04-13T12:11:48.189Z,89.00
2018-04-13T12:12:53.157Z,94.50
2018-04-13T12:13:57.402Z,95.50
2018-04-13T12:15:04.269Z,97.50
2018-04-13T12:16:08.606Z,101.25
2018-04-13T12:17:13.091Z,102.00
2018-04-13T12:18:17.628Z,95.25
2018-04-13T12:19:21.788Z,92.25
2018-04-13T12:20:26.046Z,95.00
2018-04-13T12:21:30.288Z,95.00
2018-04-13T12:22:34.454Z,97.50
2018-04-13T12:23:39.080Z,98.50
2018-04-13T12:24:43.420Z,101.00
2018-04-13T12:25:47.703Z,92.25
2018-04-13T12:26:52.384Z,96.75
2018-04-13T12:27:57.492Z,92.50
2018-04-13T12:29:01.722Z,93.25
2018-04-13T12:30:07.390Z,76.50
2018-04-13T12:31:11.997Z,102.75
2018-04-13T12:32:17.086Z,96.50
2018-04-13T12:33:21.403Z,101.00
2018-04-13T12:34:25.654Z,97.50
2018-04-13T12:35:29.840Z,109.25
2018-04-13T12:36:34.078Z,102.75
2018-04-13T12:37:38.333Z,97.00
2018-04-13T12:38:42.696Z,92.25
2018-04-13T12:39:46.911Z,105.50
2018-04-13T12:40:52.778Z,95.00
2018-04-13T12:41:57.344Z,92.25
2018-04-13T12:43:01.499Z,99.75
2018-04-13T12:44:05.736Z,90.75
2018-04-13T12:45:10.138Z,101.75
2018-04-13T12:46:14.757Z,102.00
2018-04-13T12:47:19.051Z,98.25
2018-04-13T12:48:23.237Z,92.75
2018-04-13T12:49:27.472Z,98.50
2018-04-13T12:50:31.736Z,96.25
2018-04-13T12:51:35.979Z,99.00
2018-04-13T12:52:40.187Z,98.50
2018-04-13T12:53:44.519Z,100.50
2018-04-13T12:54:49.132Z,107.00
2018-04-13T12:55:53.270Z,96.75
2018-04-13T12:56:57.635Z,96.50
2018-04-13T12:58:01.798Z,105.50
2018-04-13T12:59:06.244Z,105.75
2018-04-13T13:00:13.368Z,92.25
2018-04-13T13:01:17.529Z,103.25
2018-04-13T13:02:21.667Z,106.00
2018-04-13T13:03:25.793Z,98.25
2018-04-13T13:04:30.093Z,96.75
2018-04-13T13:05:34.246Z,93.00
2018-04-13T13:06:38.467Z,95.25
2018-04-13T13:07:42.661Z,101.00
2018-04-13T13:08:46.853Z,93.00
2018-04-13T13:09:51.250Z,90.50
2018-04-13T13:10:55.796Z,92.25
2018-04-13T13:12:00.517Z,104.50
2018-04-13T13:13:05.194Z,95.75
2018-04-13T13:14:09.331Z,90.00
2018-04-13T13:15:15.619Z,101.50
2018-04-13T13:16:19.746Z,98.25
2018-04-13T13:17:23.897Z,99.50
2018-04-13T13:18:28.166Z,93.00
2018-04-13T13:19:32.640Z,92.25
2018-04-13T13:20:36.877Z,92.25
2018-04-13T13:21:41.212Z,92.25
2018-04-13T13:22:45.743Z,102.00
2018-04-13T13:23:50.011Z,103.00
2018-04-13T13:24:54.237Z,100.75
2018-04-13T13:25:58.364Z,90.75
2018-04-13T13:27:04.000Z,93.50
2018-04-13T13:28:08.196Z,96.75
2018-04-13T13:29:13.617Z,90.00
2018-04-13T13:30:18.179Z,99.00
2018-04-13T13:31:22.307Z,95.50
2018-04-13T13:32:26.461Z,101.50
2018-04-13T13:33:30.747Z,96.00
2018-04-13T13:34:35.357Z,100.50
2018-04-13T13:35:39.529Z,94.00
2018-04-13T13:36:43.641Z,103.50
2018-04-13T13:37:47.966Z,108.50
2018-04-13T13:38:52.328Z,108.25
2018-04-13T13:39:56.463Z,108.50
2018-04-13T13:41:01.689Z,101.75
2018-04-13T13:42:06.679Z,109.50
2018-04-13T13:43:11.530Z,96.00
2018-04-13T13:44:15.703Z,101.25
2018-04-13T13:45:20.121Z,103.25
2018-04-13T13:46:24.395Z,99.00
2018-04-13T13:47:29.382Z,102.50
2018-04-13T13:48:33.585Z,96.50
2018-04-13T13:49:37.794Z,98.50